sensor_id;sensor_type;location;lat;lon;timestamp;P1;durP1;ratioP1;P2;durP2;ratioP2
70487;SDS011;57976;48.174;16.370;2023-10-19T00:00:49;16.10;;;9.50;;
70487;SDS011;57976;48.174;16.370;2023-10-19T00:02:54;17.20;;;9.60;;
70487;SDS011;57976;48.174;16.370;2023-10-19T00:04:59;15.20;;;9.70;;
70487;SDS011;57976;48.174;16.370;2023-10-19T00:07:04;16.60;;;9.70;;
70487;SDS011;57976;48.174;16.370;2023-10-19T00:09:12;16.80;;;9.70;;
70487;SDS011;57976;48.174;16.370;2023-10-19T00:11:16;16.30;;;9.80;;
70487;SDS011;57976;48.174;16.370;2023-10-19T00:13:21;15.60;;;9.30;;
70487;SDS011;57976;48.174;16.370;2023-10-19T00:15:26;17.40;;;9.90;;
70487;SDS011;57976;48.174;16.370;2023-10-19T00:17:31;16.90;;;9.10;;
70487;SDS011;57976;48.174;16.370;2023-10-19T00:19:36;16.40;;;9.70;;
70487;SDS011;57976;48.174;16.370;2023-10-19T00:21:41;16.80;;;9.70;;
70487;SDS011;57976;48.174;16.370;2023-10-19T00:23:46;17.60;;;10.00;;
70487;SDS011;57976;48.174;16.370;2023-10-19T00:25:54;17.50;;;10.10;;
70487;SDS011;57976;48.174;16.370;2023-10-19T00:28:00;16.10;;;9.90;;
70487;SDS011;57976;48.174;16.370;2023-10-19T00:30:06;15.30;;;9.70;;
70487;SDS011;57976;48.174;16.370;2023-10-19T00:32:12;15.80;;;9.50;;
70487;SDS011;57976;48.174;16.370;2023-10-19T00:34:17;17.00;;;9.70;;
70487;SDS011;57976;48.174;16.370;2023-10-19T00:36:23;17.60;;;10.70;;
70487;SDS011;57976;48.174;16.370;2023-10-19T00:38:28;18.00;;;10.10;;
70487;SDS011;57976;48.174;16.370;2023-10-19T00:40:33;16.10;;;10.00;;
70487;SDS011;57976;48.174;16.370;2023-10-19T00:42:38;17.70;;;9.90;;
70487;SDS011;57976;48.174;16.370;2023-10-19T00:44:43;17.60;;;10.90;;
70487;SDS011;57976;48.174;16.370;2023-10-19T00:46:47;15.60;;;9.80;;
70487;SDS011;57976;48.174;16.370;2023-10-19T00:48:53;17.50;;;10.60;;
70487;SDS011;57976;48.174;16.370;2023-10-19T00:50:59;16.70;;;10.10;;
70487;SDS011;57976;48.174;16.370;2023-10-19T00:53:04;18.20;;;10.30;;
70487;SDS011;57976;48.174;16.370;2023-10-19T00:55:11;19.10;;;10.60;;
70487;SDS011;57976;48.174;16.370;2023-10-19T00:57:18;16.40;;;10.70;;
70487;SDS011;57976;48.174;16.370;2023-10-19T00:59:24;18.30;;;11.00;;
70487;SDS011;57976;48.174;16.370;2023-10-19T01:01:30;17.40;;;10.40;;
70487;SDS011;57976;48.174;16.370;2023-10-19T01:03:36;18.20;;;10.10;;
70487;SDS011;57976;48.174;16.370;2023-10-19T01:05:42;16.70;;;10.30;;
70487;SDS011;57976;48.174;16.370;2023-10-19T01:07:47;17.60;;;10.60;;
70487;SDS011;57976;48.174;16.370;2023-10-19T01:09:52;17.40;;;10.30;;
70487;SDS011;57976;48.174;16.370;2023-10-19T01:11:58;17.10;;;10.30;;
70487;SDS011;57976;48.174;16.370;2023-10-19T01:16:25;15.60;;;10.10;;
70487;SDS011;57976;48.174;16.370;2023-10-19T01:18:30;16.30;;;10.20;;
70487;SDS011;57976;48.174;16.370;2023-10-19T01:20:35;16.80;;;10.60;;
70487;SDS011;57976;48.174;16.370;2023-10-19T01:22:46;17.90;;;10.70;;
70487;SDS011;57976;48.174;16.370;2023-10-19T01:24:55;17.10;;;10.10;;
70487;SDS011;57976;48.174;16.370;2023-10-19T01:27:00;17.90;;;10.80;;
70487;SDS011;57976;48.174;16.370;2023-10-19T01:29:05;17.10;;;10.40;;
70487;SDS011;57976;48.174;16.370;2023-10-19T01:31:10;16.50;;;10.30;;
70487;SDS011;57976;48.174;16.370;2023-10-19T01:33:19;18.00;;;10.70;;
70487;SDS011;57976;48.174;16.370;2023-10-19T01:35:24;17.80;;;10.80;;
70487;SDS011;57976;48.174;16.370;2023-10-19T01:37:29;16.60;;;10.60;;
70487;SDS011;57976;48.174;16.370;2023-10-19T01:39:35;17.60;;;10.40;;
70487;SDS011;57976;48.174;16.370;2023-10-19T01:41:40;17.50;;;11.00;;
70487;SDS011;57976;48.174;16.370;2023-10-19T01:43:47;17.60;;;10.60;;
70487;SDS011;57976;48.174;16.370;2023-10-19T01:45:53;17.10;;;10.90;;
70487;SDS011;57976;48.174;16.370;2023-10-19T01:47:58;18.40;;;11.00;;
70487;SDS011;57976;48.174;16.370;2023-10-19T01:50:03;17.60;;;11.60;;
70487;SDS011;57976;48.174;16.370;2023-10-19T01:52:09;18.30;;;11.00;;
70487;SDS011;57976;48.174;16.370;2023-10-19T01:54:15;16.80;;;10.70;;
70487;SDS011;57976;48.174;16.370;2023-10-19T01:56:23;18.30;;;11.30;;
70487;SDS011;57976;48.174;16.370;2023-10-19T01:58:28;17.20;;;11.00;;
70487;SDS011;57976;48.174;16.370;2023-10-19T02:00:34;17.10;;;10.60;;
70487;SDS011;57976;48.174;16.370;2023-10-19T02:02:38;17.60;;;11.20;;
70487;SDS011;57976;48.174;16.370;2023-10-19T02:04:43;17.60;;;10.90;;
70487;SDS011;57976;48.174;16.370;2023-10-19T02:06:49;17.60;;;11.00;;
70487;SDS011;57976;48.174;16.370;2023-10-19T02:08:58;18.60;;;10.90;;
70487;SDS011;57976;48.174;16.370;2023-10-19T02:11:07;18.30;;;11.00;;
70487;SDS011;57976;48.174;16.370;2023-10-19T02:13:11;17.60;;;11.00;;
70487;SDS011;57976;48.174;16.370;2023-10-19T02:15:16;16.70;;;10.40;;
70487;SDS011;57976;48.174;16.370;2023-10-19T02:17:21;18.60;;;11.10;;
70487;SDS011;57976;48.174;16.370;2023-10-19T02:19:26;18.30;;;11.10;;
70487;SDS011;57976;48.174;16.370;2023-10-19T02:21:32;17.40;;;11.10;;
70487;SDS011;57976;48.174;16.370;2023-10-19T02:23:37;17.80;;;11.70;;
70487;SDS011;57976;48.174;16.370;2023-10-19T02:25:42;17.50;;;11.20;;
70487;SDS011;57976;48.174;16.370;2023-10-19T02:27:48;18.00;;;11.00;;
70487;SDS011;57976;48.174;16.370;2023-10-19T02:29:53;18.60;;;10.90;;
70487;SDS011;57976;48.174;16.370;2023-10-19T02:31:58;17.60;;;11.00;;
70487;SDS011;57976;48.174;16.370;2023-10-19T02:34:06;17.50;;;11.20;;
70487;SDS011;57976;48.174;16.370;2023-10-19T02:36:12;18.80;;;10.60;;
70487;SDS011;57976;48.174;16.370;2023-10-19T02:38:17;21.60;;;12.50;;
70487;SDS011;57976;48.174;16.370;2023-10-19T02:40:22;17.40;;;11.10;;
70487;SDS011;57976;48.174;16.370;2023-10-19T02:42:28;20.20;;;12.40;;
70487;SDS011;57976;48.174;16.370;2023-10-19T02:44:32;20.10;;;12.60;;
70487;SDS011;57976;48.174;16.370;2023-10-19T02:46:37;23.10;;;13.40;;
70487;SDS011;57976;48.174;16.370;2023-10-19T02:48:42;19.80;;;12.00;;
70487;SDS011;57976;48.174;16.370;2023-10-19T02:50:47;18.90;;;11.80;;
70487;SDS011;57976;48.174;16.370;2023-10-19T02:52:52;19.60;;;12.10;;
70487;SDS011;57976;48.174;16.370;2023-10-19T02:54:57;19.90;;;12.00;;
70487;SDS011;57976;48.174;16.370;2023-10-19T02:57:03;18.10;;;11.90;;
70487;SDS011;57976;48.174;16.370;2023-10-19T02:59:07;17.70;;;11.70;;
70487;SDS011;57976;48.174;16.370;2023-10-19T03:01:14;21.90;;;13.40;;
70487;SDS011;57976;48.174;16.370;2023-10-19T03:03:23;19.70;;;12.40;;
70487;SDS011;57976;48.174;16.370;2023-10-19T03:05:27;20.70;;;12.50;;
70487;SDS011;57976;48.174;16.370;2023-10-19T03:07:32;19.50;;;11.90;;
70487;SDS011;57976;48.174;16.370;2023-10-19T03:09:43;19.50;;;11.70;;
70487;SDS011;57976;48.174;16.370;2023-10-19T03:11:50;18.90;;;11.90;;
70487;SDS011;57976;48.174;16.370;2023-10-19T03:13:56;18.50;;;12.20;;
70487;SDS011;57976;48.174;16.370;2023-10-19T03:16:03;19.10;;;12.00;;
70487;SDS011;57976;48.174;16.370;2023-10-19T03:18:08;18.20;;;11.60;;
70487;SDS011;57976;48.174;16.370;2023-10-19T03:20:22;19.00;;;11.80;;
70487;SDS011;57976;48.174;16.370;2023-10-19T03:22:30;18.50;;;11.80;;
70487;SDS011;57976;48.174;16.370;2023-10-19T03:24:37;19.60;;;12.10;;
70487;SDS011;57976;48.174;16.370;2023-10-19T03:26:45;18.90;;;11.90;;
70487;SDS011;57976;48.174;16.370;2023-10-19T03:28:49;18.00;;;12.00;;
70487;SDS011;57976;48.174;16.370;2023-10-19T03:30:58;19.60;;;11.90;;
70487;SDS011;57976;48.174;16.370;2023-10-19T03:33:07;19.40;;;12.30;;
70487;SDS011;57976;48.174;16.370;2023-10-19T03:35:12;20.90;;;12.40;;
70487;SDS011;57976;48.174;16.370;2023-10-19T03:37:17;20.20;;;12.40;;
70487;SDS011;57976;48.174;16.370;2023-10-19T03:39:25;20.80;;;12.10;;
70487;SDS011;57976;48.174;16.370;2023-10-19T03:41:30;18.30;;;12.00;;
70487;SDS011;57976;48.174;16.370;2023-10-19T03:43:35;19.20;;;12.10;;
70487;SDS011;57976;48.174;16.370;2023-10-19T03:45:40;19.40;;;12.10;;
70487;SDS011;57976;48.174;16.370;2023-10-19T03:47:44;18.60;;;12.40;;
70487;SDS011;57976;48.174;16.370;2023-10-19T03:49:49;19.80;;;12.50;;
70487;SDS011;57976;48.174;16.370;2023-10-19T03:51:57;18.90;;;11.60;;
70487;SDS011;57976;48.174;16.370;2023-10-19T03:54:06;18.90;;;11.80;;
70487;SDS011;57976;48.174;16.370;2023-10-19T03:56:11;19.40;;;12.70;;
70487;SDS011;57976;48.174;16.370;2023-10-19T03:58:19;19.20;;;11.70;;
70487;SDS011;57976;48.174;16.370;2023-10-19T04:00:24;18.20;;;11.50;;
70487;SDS011;57976;48.174;16.370;2023-10-19T04:02:29;19.40;;;12.40;;
70487;SDS011;57976;48.174;16.370;2023-10-19T04:04:35;18.60;;;12.20;;
70487;SDS011;57976;48.174;16.370;2023-10-19T04:06:41;20.20;;;12.60;;
70487;SDS011;57976;48.174;16.370;2023-10-19T04:08:49;20.40;;;12.30;;
70487;SDS011;57976;48.174;16.370;2023-10-19T04:10:54;19.30;;;11.60;;
70487;SDS011;57976;48.174;16.370;2023-10-19T04:13:02;19.10;;;12.30;;
70487;SDS011;57976;48.174;16.370;2023-10-19T04:15:07;19.00;;;11.80;;
70487;SDS011;57976;48.174;16.370;2023-10-19T04:17:13;20.50;;;12.60;;
70487;SDS011;57976;48.174;16.370;2023-10-19T04:19:18;19.00;;;12.70;;
70487;SDS011;57976;48.174;16.370;2023-10-19T04:21:23;19.70;;;12.70;;
70487;SDS011;57976;48.174;16.370;2023-10-19T04:23:28;19.70;;;12.70;;
70487;SDS011;57976;48.174;16.370;2023-10-19T04:25:36;20.10;;;12.40;;
70487;SDS011;57976;48.174;16.370;2023-10-19T04:27:43;21.10;;;12.70;;
70487;SDS011;57976;48.174;16.370;2023-10-19T04:29:50;20.30;;;12.50;;
70487;SDS011;57976;48.174;16.370;2023-10-19T04:31:55;19.20;;;12.40;;
70487;SDS011;57976;48.174;16.370;2023-10-19T04:34:00;20.40;;;12.40;;
70487;SDS011;57976;48.174;16.370;2023-10-19T04:36:05;21.80;;;13.10;;
70487;SDS011;57976;48.174;16.370;2023-10-19T04:38:10;21.10;;;13.10;;
70487;SDS011;57976;48.174;16.370;2023-10-19T04:40:17;18.70;;;12.40;;
70487;SDS011;57976;48.174;16.370;2023-10-19T04:42:22;19.20;;;12.30;;
70487;SDS011;57976;48.174;16.370;2023-10-19T04:44:28;20.70;;;12.80;;
70487;SDS011;57976;48.174;16.370;2023-10-19T04:46:36;19.60;;;12.40;;
70487;SDS011;57976;48.174;16.370;2023-10-19T04:48:42;18.50;;;11.90;;
70487;SDS011;57976;48.174;16.370;2023-10-19T04:50:47;18.00;;;11.20;;
70487;SDS011;57976;48.174;16.370;2023-10-19T04:52:52;20.10;;;12.60;;
70487;SDS011;57976;48.174;16.370;2023-10-19T04:54:59;20.10;;;12.40;;
70487;SDS011;57976;48.174;16.370;2023-10-19T04:57:04;21.10;;;12.70;;
70487;SDS011;57976;48.174;16.370;2023-10-19T04:59:09;19.40;;;12.60;;
70487;SDS011;57976;48.174;16.370;2023-10-19T05:01:17;19.80;;;12.40;;
70487;SDS011;57976;48.174;16.370;2023-10-19T05:03:25;19.40;;;12.10;;
70487;SDS011;57976;48.174;16.370;2023-10-19T05:05:30;22.50;;;13.40;;
70487;SDS011;57976;48.174;16.370;2023-10-19T05:07:36;20.70;;;12.50;;
70487;SDS011;57976;48.174;16.370;2023-10-19T05:09:42;20.80;;;12.70;;
70487;SDS011;57976;48.174;16.370;2023-10-19T05:11:47;18.90;;;12.20;;
70487;SDS011;57976;48.174;16.370;2023-10-19T05:13:55;20.20;;;12.60;;
70487;SDS011;57976;48.174;16.370;2023-10-19T05:16:00;19.40;;;12.00;;
70487;SDS011;57976;48.174;16.370;2023-10-19T05:18:05;21.50;;;12.70;;
70487;SDS011;57976;48.174;16.370;2023-10-19T05:20:11;20.00;;;12.30;;
70487;SDS011;57976;48.174;16.370;2023-10-19T05:22:16;19.20;;;12.40;;
70487;SDS011;57976;48.174;16.370;2023-10-19T05:24:21;18.40;;;11.40;;
70487;SDS011;57976;48.174;16.370;2023-10-19T05:26:26;18.60;;;12.60;;
70487;SDS011;57976;48.174;16.370;2023-10-19T05:28:36;19.30;;;11.70;;
70487;SDS011;57976;48.174;16.370;2023-10-19T05:30:46;20.00;;;12.50;;
70487;SDS011;57976;48.174;16.370;2023-10-19T05:32:54;19.80;;;12.50;;
70487;SDS011;57976;48.174;16.370;2023-10-19T05:34:59;21.40;;;12.40;;
70487;SDS011;57976;48.174;16.370;2023-10-19T05:37:04;19.60;;;12.20;;
70487;SDS011;57976;48.174;16.370;2023-10-19T05:39:09;21.00;;;12.60;;
70487;SDS011;57976;48.174;16.370;2023-10-19T05:41:14;18.90;;;12.70;;
70487;SDS011;57976;48.174;16.370;2023-10-19T05:43:18;19.50;;;12.30;;
70487;SDS011;57976;48.174;16.370;2023-10-19T05:45:23;18.40;;;12.00;;
70487;SDS011;57976;48.174;16.370;2023-10-19T05:47:28;19.20;;;12.90;;
70487;SDS011;57976;48.174;16.370;2023-10-19T05:49:33;19.00;;;11.90;;
70487;SDS011;57976;48.174;16.370;2023-10-19T05:51:38;19.80;;;12.30;;
70487;SDS011;57976;48.174;16.370;2023-10-19T05:53:44;20.00;;;11.90;;
70487;SDS011;57976;48.174;16.370;2023-10-19T05:55:49;19.90;;;11.90;;
70487;SDS011;57976;48.174;16.370;2023-10-19T05:57:53;20.00;;;12.00;;
70487;SDS011;57976;48.174;16.370;2023-10-19T05:59:58;21.10;;;12.00;;
70487;SDS011;57976;48.174;16.370;2023-10-19T06:02:03;17.70;;;11.90;;
70487;SDS011;57976;48.174;16.370;2023-10-19T06:04:09;18.70;;;12.10;;
70487;SDS011;57976;48.174;16.370;2023-10-19T06:06:14;18.20;;;11.40;;
70487;SDS011;57976;48.174;16.370;2023-10-19T06:08:19;18.90;;;12.40;;
70487;SDS011;57976;48.174;16.370;2023-10-19T06:10:23;19.20;;;12.10;;
70487;SDS011;57976;48.174;16.370;2023-10-19T06:12:30;18.50;;;11.50;;
70487;SDS011;57976;48.174;16.370;2023-10-19T06:14:35;19.00;;;12.20;;
70487;SDS011;57976;48.174;16.370;2023-10-19T06:16:41;19.30;;;11.70;;
70487;SDS011;57976;48.174;16.370;2023-10-19T06:18:47;18.50;;;11.90;;
70487;SDS011;57976;48.174;16.370;2023-10-19T06:20:54;20.10;;;12.70;;
70487;SDS011;57976;48.174;16.370;2023-10-19T06:22:59;19.00;;;12.30;;
70487;SDS011;57976;48.174;16.370;2023-10-19T06:25:05;18.80;;;12.30;;
70487;SDS011;57976;48.174;16.370;2023-10-19T06:27:11;18.30;;;12.00;;
70487;SDS011;57976;48.174;16.370;2023-10-19T06:29:24;18.60;;;11.90;;
70487;SDS011;57976;48.174;16.370;2023-10-19T06:31:28;19.20;;;11.90;;
70487;SDS011;57976;48.174;16.370;2023-10-19T06:33:34;19.00;;;12.20;;
70487;SDS011;57976;48.174;16.370;2023-10-19T06:35:42;19.40;;;12.40;;
70487;SDS011;57976;48.174;16.370;2023-10-19T06:37:47;19.10;;;12.20;;
70487;SDS011;57976;48.174;16.370;2023-10-19T06:39:52;18.70;;;11.70;;
70487;SDS011;57976;48.174;16.370;2023-10-19T06:41:57;18.50;;;11.80;;
70487;SDS011;57976;48.174;16.370;2023-10-19T06:44:06;19.60;;;12.20;;
70487;SDS011;57976;48.174;16.370;2023-10-19T06:46:11;18.60;;;11.70;;
70487;SDS011;57976;48.174;16.370;2023-10-19T06:48:16;19.50;;;12.20;;
70487;SDS011;57976;48.174;16.370;2023-10-19T06:50:22;21.10;;;13.00;;
70487;SDS011;57976;48.174;16.370;2023-10-19T06:52:27;18.40;;;11.80;;
70487;SDS011;57976;48.174;16.370;2023-10-19T06:54:32;17.20;;;12.00;;
70487;SDS011;57976;48.174;16.370;2023-10-19T06:56:36;19.20;;;12.50;;
70487;SDS011;57976;48.174;16.370;2023-10-19T06:58:45;19.60;;;12.70;;
70487;SDS011;57976;48.174;16.370;2023-10-19T07:00:52;17.50;;;11.70;;
70487;SDS011;57976;48.174;16.370;2023-10-19T07:02:57;19.90;;;12.70;;
70487;SDS011;57976;48.174;16.370;2023-10-19T07:05:02;18.70;;;12.30;;
70487;SDS011;57976;48.174;16.370;2023-10-19T07:07:08;20.50;;;12.90;;
70487;SDS011;57976;48.174;16.370;2023-10-19T07:09:16;19.70;;;12.20;;
70487;SDS011;57976;48.174;16.370;2023-10-19T07:11:20;22.60;;;12.20;;
70487;SDS011;57976;48.174;16.370;2023-10-19T07:13:25;18.90;;;12.00;;
70487;SDS011;57976;48.174;16.370;2023-10-19T07:15:30;18.60;;;12.50;;
70487;SDS011;57976;48.174;16.370;2023-10-19T07:17:35;19.90;;;12.20;;
70487;SDS011;57976;48.174;16.370;2023-10-19T07:19:43;18.60;;;12.30;;
70487;SDS011;57976;48.174;16.370;2023-10-19T07:21:47;19.70;;;11.90;;
70487;SDS011;57976;48.174;16.370;2023-10-19T07:23:55;19.40;;;12.90;;
70487;SDS011;57976;48.174;16.370;2023-10-19T07:26:00;19.40;;;12.60;;
70487;SDS011;57976;48.174;16.370;2023-10-19T07:28:06;19.60;;;12.80;;
70487;SDS011;57976;48.174;16.370;2023-10-19T07:30:11;19.00;;;12.50;;
70487;SDS011;57976;48.174;16.370;2023-10-19T07:32:17;21.60;;;12.90;;
70487;SDS011;57976;48.174;16.370;2023-10-19T07:34:21;19.30;;;12.50;;
70487;SDS011;57976;48.174;16.370;2023-10-19T07:36:31;19.50;;;12.60;;
70487;SDS011;57976;48.174;16.370;2023-10-19T07:38:35;19.50;;;12.30;;
70487;SDS011;57976;48.174;16.370;2023-10-19T07:40:41;20.70;;;13.10;;
70487;SDS011;57976;48.174;16.370;2023-10-19T07:42:47;19.70;;;12.10;;
70487;SDS011;57976;48.174;16.370;2023-10-19T07:44:56;20.90;;;12.50;;
70487;SDS011;57976;48.174;16.370;2023-10-19T07:47:00;20.70;;;12.40;;
70487;SDS011;57976;48.174;16.370;2023-10-19T07:49:05;20.50;;;12.70;;
70487;SDS011;57976;48.174;16.370;2023-10-19T07:51:10;19.30;;;11.80;;
70487;SDS011;57976;48.174;16.370;2023-10-19T07:53:15;20.20;;;12.80;;
70487;SDS011;57976;48.174;16.370;2023-10-19T07:55:23;18.40;;;12.00;;
70487;SDS011;57976;48.174;16.370;2023-10-19T07:57:27;20.30;;;12.90;;
70487;SDS011;57976;48.174;16.370;2023-10-19T07:59:32;20.10;;;12.60;;
70487;SDS011;57976;48.174;16.370;2023-10-19T08:01:38;21.60;;;12.50;;
70487;SDS011;57976;48.174;16.370;2023-10-19T08:03:44;19.70;;;12.40;;
70487;SDS011;57976;48.174;16.370;2023-10-19T08:05:48;20.30;;;12.20;;
70487;SDS011;57976;48.174;16.370;2023-10-19T08:07:56;19.50;;;12.80;;
70487;SDS011;57976;48.174;16.370;2023-10-19T08:10:01;21.10;;;12.90;;
70487;SDS011;57976;48.174;16.370;2023-10-19T08:12:09;20.30;;;12.20;;
70487;SDS011;57976;48.174;16.370;2023-10-19T08:14:15;21.30;;;12.30;;
70487;SDS011;57976;48.174;16.370;2023-10-19T08:16:20;20.30;;;13.00;;
70487;SDS011;57976;48.174;16.370;2023-10-19T08:18:25;19.70;;;12.50;;
70487;SDS011;57976;48.174;16.370;2023-10-19T08:20:30;18.00;;;12.10;;
70487;SDS011;57976;48.174;16.370;2023-10-19T08:22:35;18.80;;;12.50;;
70487;SDS011;57976;48.174;16.370;2023-10-19T08:24:40;21.90;;;11.80;;
70487;SDS011;57976;48.174;16.370;2023-10-19T08:26:51;19.50;;;12.20;;
70487;SDS011;57976;48.174;16.370;2023-10-19T08:28:56;19.40;;;12.60;;
70487;SDS011;57976;48.174;16.370;2023-10-19T08:31:09;18.00;;;11.70;;
70487;SDS011;57976;48.174;16.370;2023-10-19T08:33:14;18.80;;;12.30;;
70487;SDS011;57976;48.174;16.370;2023-10-19T08:35:20;18.20;;;11.80;;
70487;SDS011;57976;48.174;16.370;2023-10-19T08:37:25;20.80;;;11.90;;
70487;SDS011;57976;48.174;16.370;2023-10-19T08:39:30;19.00;;;11.90;;
70487;SDS011;57976;48.174;16.370;2023-10-19T08:41:36;17.40;;;11.60;;
70487;SDS011;57976;48.174;16.370;2023-10-19T08:43:41;18.10;;;12.00;;
70487;SDS011;57976;48.174;16.370;2023-10-19T08:45:46;19.40;;;12.50;;
70487;SDS011;57976;48.174;16.370;2023-10-19T08:47:53;19.60;;;12.10;;
70487;SDS011;57976;48.174;16.370;2023-10-19T08:50:00;19.50;;;13.00;;
70487;SDS011;57976;48.174;16.370;2023-10-19T08:52:08;18.80;;;12.20;;
70487;SDS011;57976;48.174;16.370;2023-10-19T08:54:18;20.50;;;12.60;;
70487;SDS011;57976;48.174;16.370;2023-10-19T08:56:24;18.20;;;12.60;;
70487;SDS011;57976;48.174;16.370;2023-10-19T08:58:29;19.40;;;12.20;;
70487;SDS011;57976;48.174;16.370;2023-10-19T09:00:48;19.10;;;12.70;;
70487;SDS011;57976;48.174;16.370;2023-10-19T09:02:55;19.40;;;13.20;;
70487;SDS011;57976;48.174;16.370;2023-10-19T09:05:01;20.30;;;12.90;;
70487;SDS011;57976;48.174;16.370;2023-10-19T09:07:10;18.90;;;12.20;;
70487;SDS011;57976;48.174;16.370;2023-10-19T09:09:15;19.30;;;13.30;;
70487;SDS011;57976;48.174;16.370;2023-10-19T09:11:20;19.20;;;13.10;;
70487;SDS011;57976;48.174;16.370;2023-10-19T09:13:31;18.10;;;12.40;;
70487;SDS011;57976;48.174;16.370;2023-10-19T09:15:49;19.50;;;12.40;;
70487;SDS011;57976;48.174;16.370;2023-10-19T09:17:54;19.50;;;12.60;;
70487;SDS011;57976;48.174;16.370;2023-10-19T09:20:02;19.00;;;12.60;;
70487;SDS011;57976;48.174;16.370;2023-10-19T09:22:10;17.50;;;11.90;;
70487;SDS011;57976;48.174;16.370;2023-10-19T09:24:15;18.00;;;12.50;;
70487;SDS011;57976;48.174;16.370;2023-10-19T09:26:20;19.70;;;13.00;;
70487;SDS011;57976;48.174;16.370;2023-10-19T09:28:27;18.30;;;11.90;;
70487;SDS011;57976;48.174;16.370;2023-10-19T09:30:32;18.60;;;12.00;;
70487;SDS011;57976;48.174;16.370;2023-10-19T09:32:38;17.70;;;12.30;;
70487;SDS011;57976;48.174;16.370;2023-10-19T09:34:43;19.80;;;12.20;;
70487;SDS011;57976;48.174;16.370;2023-10-19T09:36:49;17.80;;;11.00;;
70487;SDS011;57976;48.174;16.370;2023-10-19T09:38:54;17.70;;;11.20;;
70487;SDS011;57976;48.174;16.370;2023-10-19T09:40:59;18.00;;;11.60;;
70487;SDS011;57976;48.174;16.370;2023-10-19T09:43:05;17.90;;;12.10;;
70487;SDS011;57976;48.174;16.370;2023-10-19T09:45:18;17.80;;;11.90;;
70487;SDS011;57976;48.174;16.370;2023-10-19T09:47:35;19.40;;;11.40;;
70487;SDS011;57976;48.174;16.370;2023-10-19T09:49:44;19.10;;;12.10;;
70487;SDS011;57976;48.174;16.370;2023-10-19T09:51:49;16.40;;;11.70;;
70487;SDS011;57976;48.174;16.370;2023-10-19T09:54:14;18.80;;;12.50;;
70487;SDS011;57976;48.174;16.370;2023-10-19T09:56:26;19.00;;;12.40;;
70487;SDS011;57976;48.174;16.370;2023-10-19T09:58:35;17.40;;;12.00;;
70487;SDS011;57976;48.174;16.370;2023-10-19T10:00:50;19.70;;;12.70;;
70487;SDS011;57976;48.174;16.370;2023-10-19T10:02:55;16.90;;;11.30;;
70487;SDS011;57976;48.174;16.370;2023-10-19T10:05:00;18.90;;;12.30;;
70487;SDS011;57976;48.174;16.370;2023-10-19T10:07:06;18.90;;;11.90;;
70487;SDS011;57976;48.174;16.370;2023-10-19T10:09:11;18.70;;;12.00;;
70487;SDS011;57976;48.174;16.370;2023-10-19T10:11:24;18.00;;;11.90;;
70487;SDS011;57976;48.174;16.370;2023-10-19T10:13:38;18.30;;;12.00;;
70487;SDS011;57976;48.174;16.370;2023-10-19T10:15:47;17.30;;;11.70;;
70487;SDS011;57976;48.174;16.370;2023-10-19T10:17:54;17.30;;;11.90;;
70487;SDS011;57976;48.174;16.370;2023-10-19T10:22:36;19.90;;;11.90;;
70487;SDS011;57976;48.174;16.370;2023-10-19T10:24:42;19.00;;;12.50;;
70487;SDS011;57976;48.174;16.370;2023-10-19T10:29:08;19.50;;;12.30;;
70487;SDS011;57976;48.174;16.370;2023-10-19T10:31:15;17.40;;;11.50;;
70487;SDS011;57976;48.174;16.370;2023-10-19T10:35:55;20.60;;;13.00;;
70487;SDS011;57976;48.174;16.370;2023-10-19T10:38:03;17.90;;;12.00;;
70487;SDS011;57976;48.174;16.370;2023-10-19T10:40:10;17.60;;;11.70;;
70487;SDS011;57976;48.174;16.370;2023-10-19T10:42:16;20.90;;;12.60;;
70487;SDS011;57976;48.174;16.370;2023-10-19T10:44:21;17.80;;;12.10;;
70487;SDS011;57976;48.174;16.370;2023-10-19T10:46:40;17.80;;;11.40;;
70487;SDS011;57976;48.174;16.370;2023-10-19T10:48:51;17.40;;;11.70;;
70487;SDS011;57976;48.174;16.370;2023-10-19T10:50:56;16.90;;;11.60;;
70487;SDS011;57976;48.174;16.370;2023-10-19T10:53:02;18.00;;;12.00;;
70487;SDS011;57976;48.174;16.370;2023-10-19T10:55:11;17.40;;;11.70;;
70487;SDS011;57976;48.174;16.370;2023-10-19T10:57:17;16.60;;;11.10;;
70487;SDS011;57976;48.174;16.370;2023-10-19T10:59:23;17.70;;;11.20;;
70487;SDS011;57976;48.174;16.370;2023-10-19T11:01:31;17.80;;;11.90;;
70487;SDS011;57976;48.174;16.370;2023-10-19T11:03:43;17.30;;;11.80;;
70487;SDS011;57976;48.174;16.370;2023-10-19T11:05:48;17.20;;;11.80;;
70487;SDS011;57976;48.174;16.370;2023-10-19T11:08:04;17.60;;;11.10;;
70487;SDS011;57976;48.174;16.370;2023-10-19T11:10:14;17.40;;;11.60;;
70487;SDS011;57976;48.174;16.370;2023-10-19T11:12:31;15.90;;;11.00;;
70487;SDS011;57976;48.174;16.370;2023-10-19T11:14:39;17.00;;;11.90;;
70487;SDS011;57976;48.174;16.370;2023-10-19T11:17:12;16.50;;;11.20;;
70487;SDS011;57976;48.174;16.370;2023-10-19T11:19:17;16.20;;;10.90;;
70487;SDS011;57976;48.174;16.370;2023-10-19T11:21:22;14.60;;;9.70;;
70487;SDS011;57976;48.174;16.370;2023-10-19T11:23:43;17.00;;;11.40;;
70487;SDS011;57976;48.174;16.370;2023-10-19T11:25:57;17.00;;;11.20;;
70487;SDS011;57976;48.174;16.370;2023-10-19T11:28:02;19.10;;;12.10;;
70487;SDS011;57976;48.174;16.370;2023-10-19T11:30:24;18.00;;;11.10;;
70487;SDS011;57976;48.174;16.370;2023-10-19T11:32:36;16.40;;;11.30;;
70487;SDS011;57976;48.174;16.370;2023-10-19T11:34:42;19.60;;;11.60;;
70487;SDS011;57976;48.174;16.370;2023-10-19T11:36:47;17.80;;;11.60;;
70487;SDS011;57976;48.174;16.370;2023-10-19T11:38:57;17.40;;;11.20;;
70487;SDS011;57976;48.174;16.370;2023-10-19T11:41:01;18.00;;;11.00;;
70487;SDS011;57976;48.174;16.370;2023-10-19T11:43:09;16.70;;;11.40;;
70487;SDS011;57976;48.174;16.370;2023-10-19T11:45:17;15.80;;;10.50;;
70487;SDS011;57976;48.174;16.370;2023-10-19T11:47:22;18.90;;;11.30;;
70487;SDS011;57976;48.174;16.370;2023-10-19T11:49:26;16.30;;;11.00;;
70487;SDS011;57976;48.174;16.370;2023-10-19T11:51:32;18.50;;;11.20;;
70487;SDS011;57976;48.174;16.370;2023-10-19T11:53:37;16.60;;;11.10;;
70487;SDS011;57976;48.174;16.370;2023-10-19T11:55:42;17.60;;;11.10;;
70487;SDS011;57976;48.174;16.370;2023-10-19T11:57:47;16.90;;;11.40;;
70487;SDS011;57976;48.174;16.370;2023-10-19T11:59:52;16.30;;;11.10;;
70487;SDS011;57976;48.174;16.370;2023-10-19T12:02:00;17.40;;;11.40;;
70487;SDS011;57976;48.174;16.370;2023-10-19T12:04:05;16.00;;;11.00;;
70487;SDS011;57976;48.174;16.370;2023-10-19T12:06:11;17.00;;;11.10;;
70487;SDS011;57976;48.174;16.370;2023-10-19T12:08:21;17.90;;;10.90;;
70487;SDS011;57976;48.174;16.370;2023-10-19T12:10:29;15.80;;;10.70;;
70487;SDS011;57976;48.174;16.370;2023-10-19T12:12:34;17.00;;;11.00;;
70487;SDS011;57976;48.174;16.370;2023-10-19T12:14:59;16.80;;;11.10;;
70487;SDS011;57976;48.174;16.370;2023-10-19T12:17:04;16.10;;;11.00;;
70487;SDS011;57976;48.174;16.370;2023-10-19T12:19:11;19.50;;;11.60;;